Terminal Aerodrome Forecast
Issued by NWS

Home | Current Version | Previous Version | Text Only | Print | Product List | Glossary On
Versions: 1 2 3 4 5 6 7 8 9 10 11 12 13 14 15 16 17 18 19 20 21 22 23 24 25
000
FTUS45 KGJT 282322
TAFASE
TAF
KASE 282322Z 2900/2924 13007KT 5SM RA BR VCTS BKN060CB OVC080
      TEMPO 2900/2901 VRB15G30KT -TSRA SCT035 BKN050CB
     FM290200 16007KT P6SM VCSH OVC100
     FM290600 21005KT P6SM VCSH BKN150
     FM291200 VRB04KT P6SM VCSH BKN150
     FM291800 04004KT P6SM VCTS SCT080CB BKN120=

USA.gov is the U.S. government's official web portal to all federal, state and local government web resources and services.